sensor_id;sensor_type;location;lat;lon;timestamp;P1;durP1;ratioP1;P2;durP2;ratioP2
17598;SDS011;8918;52.092;5.232;2024-02-04T00:00:31;33.23;;;13.90;;
17598;SDS011;8918;52.092;5.232;2024-02-04T00:02:58;28.27;;;14.07;;
17598;SDS011;8918;52.092;5.232;2024-02-04T00:05:23;33.30;;;15.63;;
17598;SDS011;8918;52.092;5.232;2024-02-04T00:07:49;34.03;;;14.17;;
17598;SDS011;8918;52.092;5.232;2024-02-04T00:10:14;30.53;;;14.37;;
17598;SDS011;8918;52.092;5.232;2024-02-04T00:12:42;22.33;;;11.90;;
17598;SDS011;8918;52.092;5.232;2024-02-04T00:15:08;31.87;;;14.43;;
17598;SDS011;8918;52.092;5.232;2024-02-04T00:17:33;30.10;;;13.73;;
17598;SDS011;8918;52.092;5.232;2024-02-04T00:19:59;29.40;;;13.03;;
17598;SDS011;8918;52.092;5.232;2024-02-04T00:22:32;29.20;;;12.60;;
17598;SDS011;8918;52.092;5.232;2024-02-04T00:24:59;31.83;;;13.43;;
17598;SDS011;8918;52.092;5.232;2024-02-04T00:27:30;28.67;;;13.10;;
17598;SDS011;8918;52.092;5.232;2024-02-04T00:29:56;24.40;;;12.10;;
17598;SDS011;8918;52.092;5.232;2024-02-04T00:32:22;25.83;;;11.63;;
17598;SDS011;8918;52.092;5.232;2024-02-04T00:34:48;25.47;;;12.30;;
17598;SDS011;8918;52.092;5.232;2024-02-04T00:37:13;28.27;;;12.47;;
17598;SDS011;8918;52.092;5.232;2024-02-04T00:39:39;29.27;;;13.37;;
17598;SDS011;8918;52.092;5.232;2024-02-04T00:42:04;25.20;;;12.20;;
17598;SDS011;8918;52.092;5.232;2024-02-04T00:44:30;20.93;;;12.00;;
17598;SDS011;8918;52.092;5.232;2024-02-04T00:46:56;28.77;;;12.17;;
17598;SDS011;8918;52.092;5.232;2024-02-04T00:49:21;26.17;;;11.77;;
17598;SDS011;8918;52.092;5.232;2024-02-04T00:51:47;29.17;;;12.60;;
17598;SDS011;8918;52.092;5.232;2024-02-04T00:54:12;27.13;;;11.67;;
17598;SDS011;8918;52.092;5.232;2024-02-04T00:56:38;22.27;;;11.70;;
17598;SDS011;8918;52.092;5.232;2024-02-04T00:59:04;23.40;;;11.10;;
17598;SDS011;8918;52.092;5.232;2024-02-04T01:01:29;24.30;;;11.17;;
17598;SDS011;8918;52.092;5.232;2024-02-04T01:03:55;22.50;;;10.47;;
17598;SDS011;8918;52.092;5.232;2024-02-04T01:06:20;29.67;;;11.00;;
17598;SDS011;8918;52.092;5.232;2024-02-04T01:08:46;23.37;;;10.23;;
17598;SDS011;8918;52.092;5.232;2024-02-04T01:11:12;18.27;;;10.00;;
17598;SDS011;8918;52.092;5.232;2024-02-04T01:13:37;21.13;;;9.37;;
17598;SDS011;8918;52.092;5.232;2024-02-04T01:16:03;24.60;;;10.37;;
17598;SDS011;8918;52.092;5.232;2024-02-04T01:18:29;20.83;;;8.57;;
17598;SDS011;8918;52.092;5.232;2024-02-04T01:20:56;19.83;;;8.63;;
17598;SDS011;8918;52.092;5.232;2024-02-04T01:23:29;17.53;;;8.60;;
17598;SDS011;8918;52.092;5.232;2024-02-04T01:25:56;18.67;;;8.40;;
17598;SDS011;8918;52.092;5.232;2024-02-04T01:28:21;14.93;;;7.97;;
17598;SDS011;8918;52.092;5.232;2024-02-04T01:30:47;15.53;;;8.40;;
17598;SDS011;8918;52.092;5.232;2024-02-04T01:33:12;15.97;;;8.33;;
17598;SDS011;8918;52.092;5.232;2024-02-04T01:35:38;16.73;;;7.90;;
17598;SDS011;8918;52.092;5.232;2024-02-04T01:38:04;17.83;;;8.50;;
17598;SDS011;8918;52.092;5.232;2024-02-04T01:40:29;16.83;;;8.47;;
17598;SDS011;8918;52.092;5.232;2024-02-04T01:42:55;18.43;;;7.90;;
17598;SDS011;8918;52.092;5.232;2024-02-04T01:45:21;17.50;;;8.10;;
17598;SDS011;8918;52.092;5.232;2024-02-04T01:47:47;19.03;;;8.60;;
17598;SDS011;8918;52.092;5.232;2024-02-04T01:50:13;20.77;;;7.50;;
17598;SDS011;8918;52.092;5.232;2024-02-04T01:52:39;19.00;;;7.43;;
17598;SDS011;8918;52.092;5.232;2024-02-04T01:55:07;16.03;;;7.63;;
17598;SDS011;8918;52.092;5.232;2024-02-04T01:57:33;18.07;;;7.33;;
17598;SDS011;8918;52.092;5.232;2024-02-04T02:00:01;14.37;;;7.23;;
17598;SDS011;8918;52.092;5.232;2024-02-04T02:02:29;15.73;;;6.87;;
17598;SDS011;8918;52.092;5.232;2024-02-04T02:04:56;14.43;;;6.80;;
17598;SDS011;8918;52.092;5.232;2024-02-04T02:07:23;19.07;;;7.10;;
17598;SDS011;8918;52.092;5.232;2024-02-04T02:09:52;21.00;;;7.50;;
17598;SDS011;8918;52.092;5.232;2024-02-04T02:12:19;17.57;;;8.37;;
17598;SDS011;8918;52.092;5.232;2024-02-04T02:20:28;17.60;;;9.33;;
17598;SDS011;8918;52.092;5.232;2024-02-04T02:25:36;26.43;;;11.50;;
17598;SDS011;8918;52.092;5.232;2024-02-04T02:28:02;33.90;;;12.80;;
17598;SDS011;8918;52.092;5.232;2024-02-04T02:30:28;25.83;;;13.23;;
17598;SDS011;8918;52.092;5.232;2024-02-04T02:32:57;31.07;;;12.50;;
17598;SDS011;8918;52.092;5.232;2024-02-04T02:35:23;32.40;;;14.97;;
17598;SDS011;8918;52.092;5.232;2024-02-04T02:40:22;26.80;;;13.70;;
17598;SDS011;8918;52.092;5.232;2024-02-04T02:42:55;31.40;;;13.93;;
17598;SDS011;8918;52.092;5.232;2024-02-04T02:45:24;29.43;;;15.00;;
17598;SDS011;8918;52.092;5.232;2024-02-04T02:47:52;33.27;;;13.73;;
17598;SDS011;8918;52.092;5.232;2024-02-04T02:50:20;32.37;;;13.40;;
17598;SDS011;8918;52.092;5.232;2024-02-04T02:52:45;29.33;;;13.87;;
17598;SDS011;8918;52.092;5.232;2024-02-04T02:55:14;26.50;;;13.40;;
17598;SDS011;8918;52.092;5.232;2024-02-04T02:57:40;22.87;;;11.73;;
17598;SDS011;8918;52.092;5.232;2024-02-04T03:00:05;23.00;;;11.23;;
17598;SDS011;8918;52.092;5.232;2024-02-04T03:02:32;27.87;;;10.90;;
17598;SDS011;8918;52.092;5.232;2024-02-04T03:04:57;26.97;;;10.83;;
17598;SDS011;8918;52.092;5.232;2024-02-04T03:07:23;23.30;;;10.30;;
17598;SDS011;8918;52.092;5.232;2024-02-04T03:09:48;24.57;;;9.73;;
17598;SDS011;8918;52.092;5.232;2024-02-04T03:12:17;23.70;;;9.60;;
17598;SDS011;8918;52.092;5.232;2024-02-04T03:14:43;22.20;;;9.00;;
17598;SDS011;8918;52.092;5.232;2024-02-04T03:17:08;16.87;;;7.23;;
17598;SDS011;8918;52.092;5.232;2024-02-04T03:19:34;17.13;;;7.13;;
17598;SDS011;8918;52.092;5.232;2024-02-04T03:22:00;19.43;;;6.73;;
17598;SDS011;8918;52.092;5.232;2024-02-04T03:24:25;17.33;;;6.03;;
17598;SDS011;8918;52.092;5.232;2024-02-04T03:26:51;13.03;;;6.20;;
17598;SDS011;8918;52.092;5.232;2024-02-04T03:29:17;16.40;;;6.10;;
17598;SDS011;8918;52.092;5.232;2024-02-04T03:31:42;14.30;;;5.43;;
17598;SDS011;8918;52.092;5.232;2024-02-04T03:34:08;13.73;;;6.00;;
17598;SDS011;8918;52.092;5.232;2024-02-04T03:36:33;12.13;;;5.60;;
17598;SDS011;8918;52.092;5.232;2024-02-04T03:39:03;12.43;;;5.80;;
17598;SDS011;8918;52.092;5.232;2024-02-04T03:41:29;13.60;;;5.43;;
17598;SDS011;8918;52.092;5.232;2024-02-04T03:43:54;16.07;;;5.80;;
17598;SDS011;8918;52.092;5.232;2024-02-04T03:46:20;16.07;;;6.13;;
17598;SDS011;8918;52.092;5.232;2024-02-04T03:48:46;15.63;;;7.43;;
17598;SDS011;8918;52.092;5.232;2024-02-04T03:51:15;17.73;;;6.97;;
17598;SDS011;8918;52.092;5.232;2024-02-04T03:53:42;17.00;;;7.47;;
17598;SDS011;8918;52.092;5.232;2024-02-04T03:56:08;18.10;;;7.10;;
17598;SDS011;8918;52.092;5.232;2024-02-04T03:58:33;16.77;;;8.47;;
17598;SDS011;8918;52.092;5.232;2024-02-04T04:01:02;16.83;;;7.07;;
17598;SDS011;8918;52.092;5.232;2024-02-04T04:03:27;15.93;;;6.73;;
17598;SDS011;8918;52.092;5.232;2024-02-04T04:05:53;16.43;;;6.90;;
17598;SDS011;8918;52.092;5.232;2024-02-04T04:08:19;16.77;;;7.00;;
17598;SDS011;8918;52.092;5.232;2024-02-04T04:10:45;16.40;;;6.43;;
17598;SDS011;8918;52.092;5.232;2024-02-04T04:13:11;14.97;;;6.13;;
17598;SDS011;8918;52.092;5.232;2024-02-04T04:15:37;14.70;;;4.90;;
17598;SDS011;8918;52.092;5.232;2024-02-04T04:18:04;14.87;;;5.03;;
17598;SDS011;8918;52.092;5.232;2024-02-04T04:20:30;11.70;;;5.40;;
17598;SDS011;8918;52.092;5.232;2024-02-04T04:22:55;13.40;;;4.67;;
17598;SDS011;8918;52.092;5.232;2024-02-04T04:25:21;12.33;;;4.97;;
17598;SDS011;8918;52.092;5.232;2024-02-04T04:27:46;12.97;;;4.47;;
17598;SDS011;8918;52.092;5.232;2024-02-04T04:30:12;13.50;;;4.77;;
17598;SDS011;8918;52.092;5.232;2024-02-04T04:32:38;10.60;;;4.27;;
17598;SDS011;8918;52.092;5.232;2024-02-04T04:35:03;10.93;;;4.20;;
17598;SDS011;8918;52.092;5.232;2024-02-04T04:37:29;13.13;;;4.60;;
17598;SDS011;8918;52.092;5.232;2024-02-04T04:39:55;13.83;;;5.83;;
17598;SDS011;8918;52.092;5.232;2024-02-04T04:42:20;12.93;;;5.40;;
17598;SDS011;8918;52.092;5.232;2024-02-04T04:44:46;15.60;;;6.03;;
17598;SDS011;8918;52.092;5.232;2024-02-04T04:47:12;14.33;;;6.70;;
17598;SDS011;8918;52.092;5.232;2024-02-04T04:49:37;15.10;;;6.20;;
17598;SDS011;8918;52.092;5.232;2024-02-04T04:52:03;18.27;;;6.90;;
17598;SDS011;8918;52.092;5.232;2024-02-04T04:54:29;18.73;;;7.07;;
17598;SDS011;8918;52.092;5.232;2024-02-04T04:56:57;18.10;;;6.97;;
17598;SDS011;8918;52.092;5.232;2024-02-04T04:59:22;16.80;;;7.47;;
17598;SDS011;8918;52.092;5.232;2024-02-04T05:01:48;18.00;;;6.77;;
17598;SDS011;8918;52.092;5.232;2024-02-04T05:04:15;19.73;;;7.37;;
17598;SDS011;8918;52.092;5.232;2024-02-04T05:06:44;15.73;;;6.77;;
17598;SDS011;8918;52.092;5.232;2024-02-04T05:09:10;22.77;;;7.60;;
17598;SDS011;8918;52.092;5.232;2024-02-04T05:11:35;17.07;;;7.53;;
17598;SDS011;8918;52.092;5.232;2024-02-04T05:14:01;17.43;;;7.50;;
17598;SDS011;8918;52.092;5.232;2024-02-04T05:16:26;16.67;;;7.67;;
17598;SDS011;8918;52.092;5.232;2024-02-04T05:18:52;13.73;;;6.87;;
17598;SDS011;8918;52.092;5.232;2024-02-04T05:21:17;15.13;;;7.57;;
17598;SDS011;8918;52.092;5.232;2024-02-04T05:23:43;13.87;;;6.30;;
17598;SDS011;8918;52.092;5.232;2024-02-04T05:26:09;12.97;;;6.63;;
17598;SDS011;8918;52.092;5.232;2024-02-04T05:28:34;13.03;;;5.60;;
17598;SDS011;8918;52.092;5.232;2024-02-04T05:31:02;10.20;;;4.77;;
17598;SDS011;8918;52.092;5.232;2024-02-04T05:33:28;10.77;;;5.20;;
17598;SDS011;8918;52.092;5.232;2024-02-04T05:35:54;14.97;;;5.27;;
17598;SDS011;8918;52.092;5.232;2024-02-04T05:38:20;17.10;;;5.70;;
17598;SDS011;8918;52.092;5.232;2024-02-04T05:40:46;13.53;;;5.07;;
17598;SDS011;8918;52.092;5.232;2024-02-04T05:43:12;10.73;;;5.30;;
17598;SDS011;8918;52.092;5.232;2024-02-04T05:45:37;15.67;;;6.47;;
17598;SDS011;8918;52.092;5.232;2024-02-04T05:48:14;17.40;;;6.90;;
17598;SDS011;8918;52.092;5.232;2024-02-04T05:50:40;15.27;;;6.90;;
17598;SDS011;8918;52.092;5.232;2024-02-04T05:53:06;16.80;;;7.23;;
17598;SDS011;8918;52.092;5.232;2024-02-04T05:55:32;14.57;;;7.97;;
17598;SDS011;8918;52.092;5.232;2024-02-04T05:57:58;16.63;;;8.57;;
17598;SDS011;8918;52.092;5.232;2024-02-04T06:00:23;15.00;;;7.50;;
17598;SDS011;8918;52.092;5.232;2024-02-04T06:02:49;18.70;;;7.80;;
17598;SDS011;8918;52.092;5.232;2024-02-04T06:05:15;16.80;;;8.03;;
17598;SDS011;8918;52.092;5.232;2024-02-04T06:07:42;15.47;;;8.10;;
17598;SDS011;8918;52.092;5.232;2024-02-04T06:10:10;18.83;;;9.53;;
17598;SDS011;8918;52.092;5.232;2024-02-04T06:12:36;15.47;;;9.40;;
17598;SDS011;8918;52.092;5.232;2024-02-04T06:15:03;24.43;;;11.13;;
17598;SDS011;8918;52.092;5.232;2024-02-04T06:17:29;23.10;;;12.87;;
17598;SDS011;8918;52.092;5.232;2024-02-04T06:19:55;22.67;;;12.80;;
17598;SDS011;8918;52.092;5.232;2024-02-04T06:22:22;25.70;;;14.13;;
17598;SDS011;8918;52.092;5.232;2024-02-04T06:24:47;26.47;;;13.77;;
17598;SDS011;8918;52.092;5.232;2024-02-04T06:27:13;27.77;;;14.40;;
17598;SDS011;8918;52.092;5.232;2024-02-04T06:29:39;29.00;;;15.13;;
17598;SDS011;8918;52.092;5.232;2024-02-04T06:32:04;29.37;;;14.13;;
17598;SDS011;8918;52.092;5.232;2024-02-04T06:34:31;28.23;;;15.03;;
17598;SDS011;8918;52.092;5.232;2024-02-04T06:36:56;28.67;;;13.93;;
17598;SDS011;8918;52.092;5.232;2024-02-04T06:39:22;31.60;;;14.10;;
17598;SDS011;8918;52.092;5.232;2024-02-04T06:41:47;23.90;;;13.20;;
17598;SDS011;8918;52.092;5.232;2024-02-04T06:44:13;21.53;;;12.17;;
17598;SDS011;8918;52.092;5.232;2024-02-04T06:46:38;20.93;;;12.47;;
17598;SDS011;8918;52.092;5.232;2024-02-04T06:49:04;20.70;;;12.30;;
17598;SDS011;8918;52.092;5.232;2024-02-04T06:51:30;23.57;;;12.83;;
17598;SDS011;8918;52.092;5.232;2024-02-04T06:53:55;26.17;;;13.77;;
17598;SDS011;8918;52.092;5.232;2024-02-04T06:56:21;25.77;;;13.47;;
17598;SDS011;8918;52.092;5.232;2024-02-04T06:58:46;31.17;;;14.73;;
17598;SDS011;8918;52.092;5.232;2024-02-04T07:01:12;25.43;;;13.73;;
17598;SDS011;8918;52.092;5.232;2024-02-04T07:03:37;25.50;;;13.77;;
17598;SDS011;8918;52.092;5.232;2024-02-04T07:06:03;26.20;;;13.23;;
17598;SDS011;8918;52.092;5.232;2024-02-04T07:08:29;20.93;;;12.13;;
17598;SDS011;8918;52.092;5.232;2024-02-04T07:10:55;21.70;;;11.40;;
17598;SDS011;8918;52.092;5.232;2024-02-04T07:13:20;21.37;;;11.13;;
17598;SDS011;8918;52.092;5.232;2024-02-04T07:15:46;20.23;;;10.97;;
17598;SDS011;8918;52.092;5.232;2024-02-04T07:18:12;21.00;;;10.90;;
17598;SDS011;8918;52.092;5.232;2024-02-04T07:20:38;22.60;;;9.77;;
17598;SDS011;8918;52.092;5.232;2024-02-04T07:23:04;19.70;;;9.70;;
17598;SDS011;8918;52.092;5.232;2024-02-04T07:25:32;17.33;;;9.50;;
17598;SDS011;8918;52.092;5.232;2024-02-04T07:27:59;12.57;;;8.57;;
17598;SDS011;8918;52.092;5.232;2024-02-04T07:30:25;17.93;;;9.40;;
17598;SDS011;8918;52.092;5.232;2024-02-04T07:32:50;16.73;;;9.47;;
17598;SDS011;8918;52.092;5.232;2024-02-04T07:35:16;15.30;;;8.10;;
17598;SDS011;8918;52.092;5.232;2024-02-04T07:37:41;15.90;;;8.50;;
17598;SDS011;8918;52.092;5.232;2024-02-04T07:40:07;14.20;;;8.03;;
17598;SDS011;8918;52.092;5.232;2024-02-04T07:42:33;18.60;;;8.30;;
17598;SDS011;8918;52.092;5.232;2024-02-04T07:44:59;12.43;;;7.20;;
17598;SDS011;8918;52.092;5.232;2024-02-04T07:47:24;15.73;;;7.90;;
17598;SDS011;8918;52.092;5.232;2024-02-04T07:49:50;13.90;;;6.93;;
17598;SDS011;8918;52.092;5.232;2024-02-04T07:52:16;11.90;;;6.57;;
17598;SDS011;8918;52.092;5.232;2024-02-04T07:54:42;10.10;;;6.63;;
17598;SDS011;8918;52.092;5.232;2024-02-04T07:57:11;13.47;;;6.47;;
17598;SDS011;8918;52.092;5.232;2024-02-04T07:59:37;11.90;;;6.30;;
17598;SDS011;8918;52.092;5.232;2024-02-04T08:02:02;14.90;;;6.37;;
17598;SDS011;8918;52.092;5.232;2024-02-04T08:04:28;9.63;;;5.70;;
17598;SDS011;8918;52.092;5.232;2024-02-04T08:06:54;12.63;;;5.73;;
17598;SDS011;8918;52.092;5.232;2024-02-04T08:09:19;11.20;;;5.47;;
17598;SDS011;8918;52.092;5.232;2024-02-04T08:11:45;12.80;;;5.57;;
17598;SDS011;8918;52.092;5.232;2024-02-04T08:14:11;11.30;;;5.87;;
17598;SDS011;8918;52.092;5.232;2024-02-04T08:16:39;13.50;;;5.77;;
17598;SDS011;8918;52.092;5.232;2024-02-04T08:19:04;8.27;;;5.07;;
17598;SDS011;8918;52.092;5.232;2024-02-04T08:21:31;8.80;;;4.97;;
17598;SDS011;8918;52.092;5.232;2024-02-04T08:23:57;10.07;;;4.70;;
17598;SDS011;8918;52.092;5.232;2024-02-04T08:26:23;10.73;;;4.23;;
17598;SDS011;8918;52.092;5.232;2024-02-04T08:28:49;6.87;;;4.50;;
17598;SDS011;8918;52.092;5.232;2024-02-04T08:31:15;10.33;;;4.87;;
17598;SDS011;8918;52.092;5.232;2024-02-04T08:33:41;10.37;;;4.20;;
17598;SDS011;8918;52.092;5.232;2024-02-04T08:36:07;8.40;;;4.37;;
17598;SDS011;8918;52.092;5.232;2024-02-04T08:38:35;13.20;;;5.67;;
17598;SDS011;8918;52.092;5.232;2024-02-04T08:41:01;12.73;;;6.30;;
17598;SDS011;8918;52.092;5.232;2024-02-04T08:43:27;11.10;;;6.00;;
17598;SDS011;8918;52.092;5.232;2024-02-04T08:45:52;10.97;;;6.40;;
17598;SDS011;8918;52.092;5.232;2024-02-04T08:48:18;15.10;;;8.03;;
17598;SDS011;8918;52.092;5.232;2024-02-04T08:50:43;13.23;;;8.43;;
17598;SDS011;8918;52.092;5.232;2024-02-04T08:53:09;13.73;;;8.07;;
17598;SDS011;8918;52.092;5.232;2024-02-04T08:55:34;13.60;;;8.70;;
17598;SDS011;8918;52.092;5.232;2024-02-04T08:58:00;14.57;;;8.30;;
17598;SDS011;8918;52.092;5.232;2024-02-04T09:00:25;13.73;;;7.87;;
17598;SDS011;8918;52.092;5.232;2024-02-04T09:02:51;12.93;;;7.40;;
17598;SDS011;8918;52.092;5.232;2024-02-04T09:05:17;10.73;;;7.40;;
17598;SDS011;8918;52.092;5.232;2024-02-04T09:07:43;14.53;;;6.67;;
17598;SDS011;8918;52.092;5.232;2024-02-04T09:10:09;10.97;;;5.77;;
17598;SDS011;8918;52.092;5.232;2024-02-04T09:12:34;14.47;;;6.57;;
17598;SDS011;8918;52.092;5.232;2024-02-04T09:15:00;13.60;;;6.03;;
17598;SDS011;8918;52.092;5.232;2024-02-04T09:17:26;13.63;;;5.33;;
17598;SDS011;8918;52.092;5.232;2024-02-04T09:19:51;10.07;;;5.13;;
17598;SDS011;8918;52.092;5.232;2024-02-04T09:22:17;9.30;;;4.67;;
17598;SDS011;8918;52.092;5.232;2024-02-04T09:24:43;13.80;;;4.97;;
17598;SDS011;8918;52.092;5.232;2024-02-04T09:27:09;10.07;;;4.53;;
17598;SDS011;8918;52.092;5.232;2024-02-04T09:29:34;10.97;;;4.17;;
17598;SDS011;8918;52.092;5.232;2024-02-04T09:32:00;12.23;;;4.17;;
17598;SDS011;8918;52.092;5.232;2024-02-04T09:34:26;9.37;;;3.70;;
17598;SDS011;8918;52.092;5.232;2024-02-04T09:36:52;10.73;;;3.70;;
17598;SDS011;8918;52.092;5.232;2024-02-04T09:39:18;10.13;;;3.60;;
17598;SDS011;8918;52.092;5.232;2024-02-04T09:41:44;9.27;;;3.73;;
17598;SDS011;8918;52.092;5.232;2024-02-04T09:44:09;8.73;;;3.50;;
17598;SDS011;8918;52.092;5.232;2024-02-04T09:46:37;11.47;;;3.77;;
17598;SDS011;8918;52.092;5.232;2024-02-04T09:49:02;7.37;;;3.20;;
17598;SDS011;8918;52.092;5.232;2024-02-04T09:51:29;12.43;;;3.37;;
17598;SDS011;8918;52.092;5.232;2024-02-04T09:53:56;8.13;;;3.37;;
17598;SDS011;8918;52.092;5.232;2024-02-04T09:56:27;7.83;;;3.07;;
17598;SDS011;8918;52.092;5.232;2024-02-04T09:58:54;8.03;;;3.07;;
17598;SDS011;8918;52.092;5.232;2024-02-04T10:01:19;8.77;;;3.60;;
17598;SDS011;8918;52.092;5.232;2024-02-04T10:03:47;7.67;;;2.60;;
17598;SDS011;8918;52.092;5.232;2024-02-04T10:06:13;10.27;;;2.80;;
17598;SDS011;8918;52.092;5.232;2024-02-04T10:08:39;6.83;;;2.73;;
17598;SDS011;8918;52.092;5.232;2024-02-04T10:11:04;8.23;;;2.90;;
17598;SDS011;8918;52.092;5.232;2024-02-04T10:13:30;5.47;;;2.40;;
17598;SDS011;8918;52.092;5.232;2024-02-04T10:15:55;8.57;;;2.60;;
17598;SDS011;8918;52.092;5.232;2024-02-04T10:18:21;6.03;;;2.33;;
17598;SDS011;8918;52.092;5.232;2024-02-04T10:20:47;7.53;;;2.40;;
17598;SDS011;8918;52.092;5.232;2024-02-04T10:23:13;5.20;;;2.00;;
17598;SDS011;8918;52.092;5.232;2024-02-04T10:25:39;7.17;;;2.00;;
17598;SDS011;8918;52.092;5.232;2024-02-04T10:28:05;4.93;;;2.00;;
17598;SDS011;8918;52.092;5.232;2024-02-04T10:30:32;5.00;;;1.73;;
17598;SDS011;8918;52.092;5.232;2024-02-04T10:32:59;3.67;;;1.83;;
17598;SDS011;8918;52.092;5.232;2024-02-04T10:35:24;5.50;;;1.97;;
17598;SDS011;8918;52.092;5.232;2024-02-04T10:37:50;3.93;;;1.63;;
17598;SDS011;8918;52.092;5.232;2024-02-04T10:40:16;3.70;;;1.77;;
17598;SDS011;8918;52.092;5.232;2024-02-04T10:42:43;3.20;;;1.87;;
17598;SDS011;8918;52.092;5.232;2024-02-04T10:45:10;4.33;;;1.70;;
17598;SDS011;8918;52.092;5.232;2024-02-04T10:47:39;4.63;;;1.60;;
17598;SDS011;8918;52.092;5.232;2024-02-04T10:50:05;3.63;;;1.70;;
17598;SDS011;8918;52.092;5.232;2024-02-04T10:52:35;3.70;;;1.50;;
17598;SDS011;8918;52.092;5.232;2024-02-04T10:55:04;3.77;;;1.47;;
17598;SDS011;8918;52.092;5.232;2024-02-04T10:57:32;4.20;;;1.70;;
17598;SDS011;8918;52.092;5.232;2024-02-04T11:00:00;1.77;;;1.40;;
17598;SDS011;8918;52.092;5.232;2024-02-04T11:02:33;5.60;;;3.47;;
17598;SDS011;8918;52.092;5.232;2024-02-04T11:05:00;3.30;;;2.10;;
17598;SDS011;8918;52.092;5.232;2024-02-04T11:07:28;1.60;;;1.40;;
17598;SDS011;8918;52.092;5.232;2024-02-04T11:09:59;2.60;;;2.33;;
17598;SDS011;8918;52.092;5.232;2024-02-04T11:12:25;3.30;;;2.40;;
17598;SDS011;8918;52.092;5.232;2024-02-04T11:14:54;3.50;;;2.30;;
17598;SDS011;8918;52.092;5.232;2024-02-04T11:21:22;3.93;;;3.60;;
17598;SDS011;8918;52.092;5.232;2024-02-04T11:23:46;6.67;;;4.50;;
17598;SDS011;8918;52.092;5.232;2024-02-04T11:26:17;8.03;;;6.30;;
17598;SDS011;8918;52.092;5.232;2024-02-04T11:28:44;7.50;;;5.43;;
17598;SDS011;8918;52.092;5.232;2024-02-04T11:31:13;8.83;;;6.00;;
17598;SDS011;8918;52.092;5.232;2024-02-04T11:33:41;11.87;;;6.17;;
17598;SDS011;8918;52.092;5.232;2024-02-04T11:36:07;14.43;;;6.43;;
17598;SDS011;8918;52.092;5.232;2024-02-04T11:38:37;12.13;;;6.10;;
17598;SDS011;8918;52.092;5.232;2024-02-04T11:41:03;10.37;;;5.57;;
17598;SDS011;8918;52.092;5.232;2024-02-04T11:43:31;9.57;;;5.43;;
17598;SDS011;8918;52.092;5.232;2024-02-04T11:45:59;9.77;;;5.27;;
17598;SDS011;8918;52.092;5.232;2024-02-04T11:48:28;9.93;;;5.00;;
17598;SDS011;8918;52.092;5.232;2024-02-04T11:50:58;7.37;;;4.43;;
17598;SDS011;8918;52.092;5.232;2024-02-04T11:53:27;7.87;;;4.17;;
17598;SDS011;8918;52.092;5.232;2024-02-04T11:55:59;10.23;;;4.00;;
17598;SDS011;8918;52.092;5.232;2024-02-04T11:58:25;9.63;;;3.80;;
17598;SDS011;8918;52.092;5.232;2024-02-04T12:00:56;8.57;;;3.97;;
17598;SDS011;8918;52.092;5.232;2024-02-04T12:03:29;5.87;;;3.70;;
17598;SDS011;8918;52.092;5.232;2024-02-04T12:05:55;7.47;;;3.57;;
17598;SDS011;8918;52.092;5.232;2024-02-04T12:08:22;11.20;;;3.93;;
17598;SDS011;8918;52.092;5.232;2024-02-04T12:10:48;9.17;;;3.43;;
17598;SDS011;8918;52.092;5.232;2024-02-04T12:13:15;7.73;;;3.30;;
17598;SDS011;8918;52.092;5.232;2024-02-04T12:15:41;8.90;;;3.03;;
17598;SDS011;8918;52.092;5.232;2024-02-04T12:18:08;8.73;;;3.10;;
17598;SDS011;8918;52.092;5.232;2024-02-04T12:20:35;9.93;;;3.00;;
17598;SDS011;8918;52.092;5.232;2024-02-04T12:23:04;11.40;;;3.43;;
17598;SDS011;8918;52.092;5.232;2024-02-04T12:25:31;7.87;;;2.87;;
17598;SDS011;8918;52.092;5.232;2024-02-04T12:28:01;6.67;;;2.90;;
17598;SDS011;8918;52.092;5.232;2024-02-04T12:30:28;6.33;;;2.50;;
17598;SDS011;8918;52.092;5.232;2024-02-04T12:32:57;11.40;;;3.37;;
17598;SDS011;8918;52.092;5.232;2024-02-04T12:35:26;7.40;;;2.90;;
17598;SDS011;8918;52.092;5.232;2024-02-04T12:37:53;10.13;;;3.27;;
17598;SDS011;8918;52.092;5.232;2024-02-04T12:40:22;8.43;;;3.23;;
17598;SDS011;8918;52.092;5.232;2024-02-04T12:42:55;7.03;;;3.20;;
17598;SDS011;8918;52.092;5.232;2024-02-04T12:45:23;9.37;;;3.30;;
17598;SDS011;8918;52.092;5.232;2024-02-04T12:47:50;9.73;;;3.57;;
17598;SDS011;8918;52.092;5.232;2024-02-04T12:50:17;7.47;;;3.10;;
17598;SDS011;8918;52.092;5.232;2024-02-04T12:52:44;6.90;;;3.40;;
17598;SDS011;8918;52.092;5.232;2024-02-04T12:55:23;8.73;;;3.13;;
17598;SDS011;8918;52.092;5.232;2024-02-04T12:57:50;7.57;;;3.43;;
17598;SDS011;8918;52.092;5.232;2024-02-04T13:00:19;8.60;;;3.13;;
17598;SDS011;8918;52.092;5.232;2024-02-04T13:02:48;7.70;;;2.60;;
17598;SDS011;8918;52.092;5.232;2024-02-04T13:05:21;10.87;;;2.97;;
17598;SDS011;8918;52.092;5.232;2024-02-04T13:08:00;7.87;;;2.60;;
17598;SDS011;8918;52.092;5.232;2024-02-04T13:10:31;9.00;;;2.90;;
17598;SDS011;8918;52.092;5.232;2024-02-04T13:15:41;4.60;;;2.30;;
17598;SDS011;8918;52.092;5.232;2024-02-04T13:18:09;6.83;;;2.50;;
17598;SDS011;8918;52.092;5.232;2024-02-04T13:20:36;7.17;;;2.63;;
17598;SDS011;8918;52.092;5.232;2024-02-04T13:23:03;10.00;;;2.80;;
17598;SDS011;8918;52.092;5.232;2024-02-04T13:25:30;8.17;;;3.27;;
17598;SDS011;8918;52.092;5.232;2024-02-04T13:27:56;10.17;;;3.37;;
17598;SDS011;8918;52.092;5.232;2024-02-04T13:30:22;9.17;;;3.40;;
17598;SDS011;8918;52.092;5.232;2024-02-04T13:32:48;10.30;;;3.93;;
17598;SDS011;8918;52.092;5.232;2024-02-04T13:35:13;13.10;;;3.70;;
17598;SDS011;8918;52.092;5.232;2024-02-04T13:37:42;13.27;;;4.20;;
17598;SDS011;8918;52.092;5.232;2024-02-04T13:40:15;11.23;;;4.40;;
17598;SDS011;8918;52.092;5.232;2024-02-04T13:42:42;14.67;;;4.83;;
17598;SDS011;8918;52.092;5.232;2024-02-04T13:45:08;16.60;;;5.80;;
17598;SDS011;8918;52.092;5.232;2024-02-04T13:47:34;13.77;;;6.00;;
17598;SDS011;8918;52.092;5.232;2024-02-04T13:50:00;13.27;;;5.50;;
17598;SDS011;8918;52.092;5.232;2024-02-04T13:52:26;12.10;;;4.73;;
17598;SDS011;8918;52.092;5.232;2024-02-04T13:54:52;12.97;;;4.40;;
17598;SDS011;8918;52.092;5.232;2024-02-04T13:57:17;9.77;;;4.00;;
17598;SDS011;8918;52.092;5.232;2024-02-04T13:59:43;14.37;;;4.37;;
17598;SDS011;8918;52.092;5.232;2024-02-04T14:02:08;12.37;;;4.70;;
17598;SDS011;8918;52.092;5.232;2024-02-04T14:04:34;16.03;;;5.67;;
17598;SDS011;8918;52.092;5.232;2024-02-04T14:07:00;14.13;;;5.37;;
17598;SDS011;8918;52.092;5.232;2024-02-04T14:09:27;19.13;;;6.13;;
17598;SDS011;8918;52.092;5.232;2024-02-04T14:11:53;14.23;;;5.50;;
17598;SDS011;8918;52.092;5.232;2024-02-04T14:14:19;11.90;;;4.70;;
17598;SDS011;8918;52.092;5.232;2024-02-04T14:16:46;14.63;;;4.70;;
17598;SDS011;8918;52.092;5.232;2024-02-04T14:19:12;12.53;;;4.23;;
17598;SDS011;8918;52.092;5.232;2024-02-04T14:21:38;10.73;;;3.60;;
17598;SDS011;8918;52.092;5.232;2024-02-04T14:24:06;14.53;;;3.77;;
17598;SDS011;8918;52.092;5.232;2024-02-04T14:26:31;9.47;;;3.23;;
17598;SDS011;8918;52.092;5.232;2024-02-04T14:28:57;9.60;;;3.40;;
17598;SDS011;8918;52.092;5.232;2024-02-04T14:31:23;10.43;;;3.20;;
17598;SDS011;8918;52.092;5.232;2024-02-04T14:33:49;11.70;;;3.27;;
17598;SDS011;8918;52.092;5.232;2024-02-04T14:36:14;7.80;;;3.30;;
17598;SDS011;8918;52.092;5.232;2024-02-04T14:38:40;11.13;;;3.27;;
17598;SDS011;8918;52.092;5.232;2024-02-04T14:41:05;9.23;;;2.70;;
17598;SDS011;8918;52.092;5.232;2024-02-04T14:43:31;11.17;;;2.60;;
17598;SDS011;8918;52.092;5.232;2024-02-04T14:45:58;8.67;;;2.57;;
17598;SDS011;8918;52.092;5.232;2024-02-04T14:48:23;8.47;;;2.90;;
17598;SDS011;8918;52.092;5.232;2024-02-04T14:50:49;8.00;;;3.00;;
17598;SDS011;8918;52.092;5.232;2024-02-04T14:53:14;12.43;;;3.57;;
17598;SDS011;8918;52.092;5.232;2024-02-04T14:55:40;7.20;;;2.30;;
17598;SDS011;8918;52.092;5.232;2024-02-04T14:58:06;9.17;;;2.73;;
17598;SDS011;8918;52.092;5.232;2024-02-04T15:00:31;7.87;;;2.70;;